NASA941 KTTS-KLAL
Flight info
| Callsign | NASA941 |
|---|---|
| Flight time | N/A |
| Altitude | 4500 |
| Route | DCT |
| Aircraft | SGUP/M-V/N |
Departure
| Time | 2026-04-26 20:34 |
|---|---|
| Airport | Space Florida Launch and Landing Facility (KTTS) |
Arrival
| Time | N/A |
|---|---|
| Airport | Lakeland Linder International Airport (KLAL) |
| Time | Latitude | Longitude | Altitude | Speed | Heading |
|---|---|---|---|---|---|
| 2026-04-26 20:28 | 28.59935 | -80.67963 | -6 ft | 0 kts | 329° |
| 2026-04-26 20:31 | 28.59947 | -80.67971 | -6 ft | 0 kts | 329° |
| 2026-04-26 20:32 | 28.59957 | -80.67981 | -6 ft | 5 kts | 299° |
| 2026-04-26 20:32 | 28.59896 | -80.68037 | -6 ft | 13 kts | 199° |
| 2026-04-26 20:32 | 28.59767 | -80.68093 | -6 ft | 25 kts | 220° |
| 2026-04-26 20:32 | 28.59771 | -80.68283 | -6 ft | 31 kts | 301° |
| 2026-04-26 20:33 | 28.59966 | -80.68442 | -5 ft | 72 kts | 331° |
| 2026-04-26 20:33 | 28.60388 | -80.68729 | -5 ft | 124 kts | 330° |
| 2026-04-26 20:33 | 28.61221 | -80.69265 | 23 ft | 161 kts | 330° |
| 2026-04-26 20:33 | 28.62194 | -80.69894 | 243 ft | 172 kts | 330° |
| 2026-04-26 20:34 | 28.63224 | -80.70646 | 578 ft | 181 kts | 318° |
| 2026-04-26 20:34 | 28.63815 | -80.71712 | 856 ft | 182 kts | 284° |
| 2026-04-26 20:34 | 28.63706 | -80.73150 | 1234 ft | 180 kts | 247° |
| 2026-04-26 20:34 | 28.62964 | -80.74314 | 1533 ft | 182 kts | 224° |
| 2026-04-26 20:35 | 28.61830 | -80.75226 | 1893 ft | 184 kts | 209° |
| 2026-04-26 20:35 | 28.60786 | -80.75799 | 2035 ft | 194 kts | 207° |
| 2026-04-26 20:35 | 28.59560 | -80.76886 | 2228 ft | 206 kts | 228° |
| 2026-04-26 20:35 | 28.58747 | -80.78260 | 2708 ft | 195 kts | 243° |
| 2026-04-26 20:36 | 28.58156 | -80.79565 | 3096 ft | 194 kts | 244° |
| 2026-04-26 20:36 | 28.57589 | -80.80842 | 3463 ft | 193 kts | 244° |
| 2026-04-26 20:36 | 28.56959 | -80.82240 | 3756 ft | 198 kts | 243° |
| 2026-04-26 20:36 | 28.56400 | -80.83376 | 3907 ft | 205 kts | 241° |
| 2026-04-26 20:37 | 28.55611 | -80.84912 | 4104 ft | 213 kts | 241° |
| 2026-04-26 20:37 | 28.54933 | -80.86292 | 4504 ft | 207 kts | 243° |
| 2026-04-26 20:37 | 28.54230 | -80.87678 | 4785 ft | 178 kts | 242° |
| 2026-04-26 20:37 | 28.53585 | -80.88954 | 4067 ft | 206 kts | 243° |
| 2026-04-26 20:38 | 28.52932 | -80.90325 | 4138 ft | 204 kts | 244° |
| 2026-04-26 20:38 | 28.52448 | -80.91411 | 4283 ft | 206 kts | 245° |
| 2026-04-26 20:38 | 28.51941 | -80.92646 | 4418 ft | 208 kts | 248° |
| 2026-04-26 20:38 | 28.51509 | -80.93884 | 4564 ft | 205 kts | 251° |
| 2026-04-26 20:39 | 28.51081 | -80.95442 | 4738 ft | 208 kts | 253° |
| 2026-04-26 20:39 | 28.50572 | -80.96934 | 4895 ft | 208 kts | 245° |
| 2026-04-26 20:39 | 28.49626 | -80.98307 | 4474 ft | 216 kts | 214° |
| 2026-04-26 20:39 | 28.48278 | -80.99093 | 4349 ft | 198 kts | 211° |
| 2026-04-26 20:40 | 28.47046 | -80.99954 | 4196 ft | 181 kts | 219° |
| 2026-04-26 20:40 | 28.46176 | -81.00852 | 3891 ft | 181 kts | 230° |
| 2026-04-26 20:40 | 28.45316 | -81.02135 | 3722 ft | 202 kts | 239° |
| 2026-04-26 20:40 | 28.44511 | -81.03654 | 3765 ft | 223 kts | 241° |
| 2026-04-26 20:41 | 28.43762 | -81.05103 | 4028 ft | 229 kts | 242° |
| 2026-04-26 20:41 | 28.43059 | -81.06549 | 4099 ft | 240 kts | 243° |
| 2026-04-26 20:41 | 28.42290 | -81.08162 | 4108 ft | 224 kts | 243° |
| 2026-04-26 20:42 | 28.41024 | -81.10910 | 3632 ft | 203 kts | 245° |
| 2026-04-26 20:42 | 28.40388 | -81.12340 | 3706 ft | 205 kts | 245° |
| 2026-04-26 20:42 | 28.39761 | -81.13813 | 3806 ft | 212 kts | 246° |
| 2026-04-26 20:42 | 28.39094 | -81.15347 | 3906 ft | 219 kts | 245° |
| 2026-04-26 20:43 | 28.38492 | -81.16718 | 4057 ft | 220 kts | 245° |
| 2026-04-26 20:43 | 28.37863 | -81.18196 | 4143 ft | 225 kts | 245° |
| 2026-04-26 20:43 | 28.37338 | -81.19418 | 4205 ft | 229 kts | 245° |
| 2026-04-26 20:43 | 28.36718 | -81.20839 | 4279 ft | 232 kts | 245° |
| 2026-04-26 20:44 | 28.35911 | -81.22585 | 4362 ft | 235 kts | 242° |
| 2026-04-26 20:44 | 28.35128 | -81.24104 | 4480 ft | 235 kts | 242° |
| 2026-04-26 20:44 | 28.34438 | -81.25438 | 4425 ft | 242 kts | 242° |
| 2026-04-26 20:44 | 28.33626 | -81.27020 | 4432 ft | 244 kts | 242° |
| 2026-04-26 20:45 | 28.32688 | -81.28876 | 4448 ft | 247 kts | 242° |
| 2026-04-26 20:45 | 28.31848 | -81.30519 | 4499 ft | 247 kts | 242° |
| 2026-04-26 20:45 | 28.31252 | -81.31756 | 4565 ft | 246 kts | 244° |
| 2026-04-26 20:45 | 28.30489 | -81.33364 | 4493 ft | 251 kts | 244° |
| 2026-04-26 20:46 | 28.29756 | -81.34924 | 4359 ft | 258 kts | 244° |
| 2026-04-26 20:46 | 28.29021 | -81.36478 | 4340 ft | 258 kts | 243° |
| 2026-04-26 20:46 | 28.28209 | -81.38179 | 4246 ft | 259 kts | 243° |
| 2026-04-26 20:46 | 28.27590 | -81.39493 | 4130 ft | 257 kts | 244° |
| 2026-04-26 20:47 | 28.26747 | -81.41319 | 4005 ft | 254 kts | 244° |
| 2026-04-26 20:47 | 28.26187 | -81.42500 | 3889 ft | 253 kts | 243° |
| 2026-04-26 20:47 | 28.25113 | -81.44616 | 3806 ft | 245 kts | 243° |
| 2026-04-26 20:47 | 28.24484 | -81.45939 | 3806 ft | 239 kts | 244° |
| 2026-04-26 20:48 | 28.23863 | -81.47300 | 3764 ft | 237 kts | 245° |
| 2026-04-26 20:48 | 28.23188 | -81.49029 | 3676 ft | 235 kts | 250° |
| 2026-04-26 20:48 | 28.22723 | -81.50584 | 3656 ft | 232 kts | 255° |
| 2026-04-26 20:48 | 28.22334 | -81.52356 | 3627 ft | 229 kts | 259° |
| 2026-04-26 20:49 | 28.22061 | -81.53919 | 3618 ft | 226 kts | 261° |
| 2026-04-26 20:49 | 28.21727 | -81.55796 | 3776 ft | 217 kts | 259° |
| 2026-04-26 20:49 | 28.21447 | -81.57220 | 3870 ft | 213 kts | 258° |
| 2026-04-26 20:49 | 28.20968 | -81.58826 | 3865 ft | 215 kts | 248° |
| 2026-04-26 20:50 | 28.20321 | -81.60013 | 4000 ft | 211 kts | 236° |
| 2026-04-26 20:50 | 28.19497 | -81.61020 | 4017 ft | 216 kts | 227° |
| 2026-04-26 20:50 | 28.18535 | -81.61937 | 4092 ft | 219 kts | 220° |
| 2026-04-26 20:50 | 28.17430 | -81.62823 | 4190 ft | 220 kts | 218° |
| 2026-04-26 20:51 | 28.16372 | -81.63714 | 4274 ft | 220 kts | 222° |
| 2026-04-26 20:51 | 28.15266 | -81.64809 | 4383 ft | 220 kts | 227° |
| 2026-04-26 20:51 | 28.14342 | -81.65922 | 4457 ft | 220 kts | 233° |
| 2026-04-26 20:51 | 28.13483 | -81.67220 | 4384 ft | 218 kts | 237° |
| 2026-04-26 20:52 | 28.12676 | -81.68503 | 4306 ft | 206 kts | 237° |
| 2026-04-26 20:52 | 28.12165 | -81.69340 | 4412 ft | 190 kts | 240° |
| 2026-04-26 20:52 | 28.11582 | -81.70439 | 4324 ft | 183 kts | 244° |
| 2026-04-26 20:52 | 28.10947 | -81.71852 | 4166 ft | 181 kts | 246° |
| 2026-04-26 20:53 | 28.10380 | -81.73233 | 4055 ft | 180 kts | 250° |
| 2026-04-26 20:53 | 28.10021 | -81.74234 | 4031 ft | 175 kts | 252° |
| 2026-04-26 20:53 | 28.09681 | -81.75426 | 3900 ft | 174 kts | 257° |
| 2026-04-26 20:53 | 28.09504 | -81.76601 | 3685 ft | 170 kts | 271° |
| 2026-04-26 20:54 | 28.09694 | -81.77749 | 3499 ft | 167 kts | 292° |
| 2026-04-26 20:54 | 28.10321 | -81.78816 | 3375 ft | 174 kts | 310° |
| 2026-04-26 20:54 | 28.11205 | -81.79674 | 3298 ft | 176 kts | 323° |
| 2026-04-26 20:54 | 28.12293 | -81.80326 | 3175 ft | 176 kts | 338° |
| 2026-04-26 20:55 | 28.13433 | -81.80556 | 3251 ft | 187 kts | 354° |
| 2026-04-26 20:55 | 28.14642 | -81.80495 | 3368 ft | 189 kts | 355° |
| 2026-04-26 20:55 | 28.15617 | -81.80863 | 3247 ft | 170 kts | 317° |
| 2026-04-26 20:55 | 28.16134 | -81.81988 | 3029 ft | 154 kts | 257° |
| 2026-04-26 20:56 | 28.15419 | -81.82751 | 2781 ft | 161 kts | 194° |
| 2026-04-26 20:56 | 28.14415 | -81.82854 | 2350 ft | 175 kts | 191° |
| 2026-04-26 20:56 | 28.13954 | -81.82933 | 2211 ft | 173 kts | 198° |
| 2026-04-26 20:56 | 28.13250 | -81.83137 | 2073 ft | 169 kts | 202° |
| 2026-04-26 20:57 | 28.12291 | -81.83444 | 1915 ft | 164 kts | 204° |
| 2026-04-26 20:57 | 28.11235 | -81.84153 | 2016 ft | 179 kts | 226° |
| 2026-04-26 20:57 | 28.10470 | -81.85184 | 2115 ft | 172 kts | 240° |
| 2026-04-26 20:57 | 28.09975 | -81.86105 | 2149 ft | 168 kts | 243° |
| 2026-04-26 20:58 | 28.09454 | -81.87097 | 2188 ft | 164 kts | 243° |
| 2026-04-26 20:58 | 28.08824 | -81.88303 | 2078 ft | 170 kts | 243° |
| 2026-04-26 20:58 | 28.08279 | -81.89361 | 2012 ft | 169 kts | 243° |
| 2026-04-26 20:58 | 28.07745 | -81.90413 | 2015 ft | 162 kts | 243° |
| 2026-04-26 20:59 | 28.07253 | -81.91511 | 1944 ft | 162 kts | 249° |
| 2026-04-26 20:59 | 28.06875 | -81.92713 | 2003 ft | 153 kts | 258° |
| 2026-04-26 20:59 | 28.06709 | -81.93845 | 1985 ft | 147 kts | 266° |
| 2026-04-26 20:59 | 28.06487 | -81.94903 | 1957 ft | 149 kts | 247° |
| 2026-04-26 21:00 | 28.05950 | -81.95696 | 2025 ft | 165 kts | 230° |
| 2026-04-26 21:00 | 28.05110 | -81.96340 | 2146 ft | 171 kts | 204° |
| 2026-04-26 21:00 | 28.04171 | -81.96510 | 2170 ft | 175 kts | 186° |
| 2026-04-26 21:00 | 28.03036 | -81.96490 | 2024 ft | 177 kts | 182° |
| 2026-04-26 21:01 | 28.01995 | -81.96401 | 1886 ft | 178 kts | 180° |
| 2026-04-26 21:01 | 28.00893 | -81.96255 | 1780 ft | 177 kts | 179° |
| 2026-04-26 21:01 | 27.99795 | -81.96093 | 1770 ft | 168 kts | 178° |
| 2026-04-26 21:01 | 27.99014 | -81.95977 | 1686 ft | 167 kts | 180° |